21 Jan 2020 19:53 UTC 2020021+19:53 UTC

Overview Datums Bench Marks Data Query Site Visit Daily QC Messages Attributes

171: National Park Service - Bird Island

27° 29' 4" N   97° 19' 5" W
NPSBI
United States National Park Service United States National Park Service

Station Information

National Park Service - Bird Island
National Park Service - Bird Island
more pictures
 
Station Name:National Park Service - Bird Island
DNR ID:171
Location:27° 29' 4" N, 97° 19' 5" W

Water Level Forecasts

Latest Observations

Series Metric English Marine Observed at
Water Temperature 16.0 °C 60.8 °F 60.8 °F Jan 21 13:42 CST
00h08m ago
Salinity 31.100 psu 31.100 psu 31.100 psu Jan 21 13:42 CST
00h08m ago
Dissolved Oxygen 8.50 mg/L 0.000531 lb/ft3 0.000531 lb/ft3 Jan 21 13:42 CST
00h08m ago

Maps

National Park Service - Bird Island
All Stations in Area
Entire Network
 

Recent Observations

Date/Time Water
Temp (°F)
Sal (psu) pH (pH) Turb (ntu) DO (lb/ft3)
Jan 21 13:00 CST 59.9 31.000 0.000552
Jan 21 12:00 CST 58.3 31.000 0.000538
Jan 21 11:00 CST 57.6 31.100 0.000494
Jan 21 10:00 CST 56.1 31.000 0.000457
Jan 21 09:00 CST 55.8 31.100 0.000461
Jan 21 08:00 CST 56.3 31.200 0.000470
Jan 21 07:00 CST 58.1 31.400 0.000478
Jan 21 06:00 CST 57.7 31.300 0.000499
Jan 21 05:00 CST 58.1 31.400 0.000499
Jan 21 04:00 CST 58.3 31.400 0.000507
Jan 21 03:00 CST 58.3 31.300 0.000518
Jan 21 02:00 CST 58.6 31.200 0.000519
Jan 21 01:00 CST 58.6 31.400 0.000517
Jan 21 00:00 CST 58.6 31.200 0.000536
Jan 20 23:00 CST 58.3 31.200 0.000541
Jan 20 22:00 CST 58.8 31.100 0.000512
Jan 20 21:00 CST 59.0 31.200 0.000561
Jan 20 20:00 CST 59.0 31.200 0.000564
Jan 20 19:00 CST 59.7 31.200 0.000550
Jan 20 18:00 CST 59.4 31.200 0.000573
Jan 20 17:00 CST 58.6 31.300 0.000584
Jan 20 16:00 CST 58.6 31.400 0.000589
Jan 20 15:00 CST 58.8 31.300 0.000570
Jan 20 14:00 CST 59.0 31.300 0.000551
Jan 20 13:00 CST 58.3 31.100 0.000560

Historical Data Availability